createdAt,value
2022-08-26T00:01:52.569Z,24.31
2022-08-26T00:04:21.367Z,24.27
2022-08-26T00:06:50.209Z,24.20
2022-08-26T00:09:17.723Z,24.17
2022-08-26T00:11:45.480Z,24.13
2022-08-26T00:14:13.952Z,24.09
2022-08-26T00:16:47.974Z,24.07
2022-08-26T00:19:15.986Z,24.03
2022-08-26T00:21:43.441Z,23.96
2022-08-26T00:24:13.330Z,23.95
2022-08-26T00:26:41.343Z,23.93
2022-08-26T00:29:09.499Z,23.94
2022-08-26T00:31:36.820Z,23.93
2022-08-26T00:34:04.636Z,23.91
2022-08-26T00:36:32.485Z,23.89
2022-08-26T00:38:59.665Z,23.88
2022-08-26T00:41:30.597Z,23.86
2022-08-26T00:43:57.910Z,23.86
2022-08-26T00:46:29.222Z,23.84
2022-08-26T00:49:03.175Z,23.83
2022-08-26T00:51:31.078Z,23.82
2022-08-26T00:54:02.185Z,23.78
2022-08-26T00:56:36.560Z,23.75
2022-08-26T00:59:07.197Z,23.73
2022-08-26T01:01:34.517Z,23.68
2022-08-26T01:04:02.170Z,23.64
2022-08-26T01:06:29.888Z,23.60
2022-08-26T01:08:57.897Z,23.56
2022-08-26T01:11:25.513Z,23.52
2022-08-26T01:13:55.883Z,23.48
2022-08-26T01:16:25.592Z,23.47
2022-08-26T01:18:55.402Z,23.47
2022-08-26T01:21:28.505Z,23.43
2022-08-26T01:23:59.604Z,23.40
2022-08-26T01:26:30.557Z,23.36
2022-08-26T01:29:00.229Z,23.33
2022-08-26T01:31:37.479Z,23.33
2022-08-26T01:34:12.221Z,23.33
2022-08-26T01:36:40.445Z,23.31
2022-08-26T01:39:10.788Z,23.27
2022-08-26T01:41:40.640Z,23.26
2022-08-26T01:44:20.495Z,23.22
2022-08-26T01:46:50.643Z,23.16
2022-08-26T01:49:19.350Z,23.11
2022-08-26T01:51:47.458Z,23.07
2022-08-26T01:54:16.250Z,23.04
2022-08-26T01:56:48.958Z,22.96
2022-08-26T01:59:20.179Z,22.93
2022-08-26T02:01:48.233Z,22.83
2022-08-26T02:04:18.975Z,22.61
2022-08-26T02:06:47.793Z,22.53
2022-08-26T02:09:18.698Z,22.50
2022-08-26T02:11:48.590Z,22.51
2022-08-26T02:14:21.013Z,22.50
2022-08-26T02:16:51.927Z,22.48
2022-08-26T02:19:21.489Z,22.47
2022-08-26T02:21:53.094Z,22.48
2022-08-26T02:24:23.718Z,22.36
2022-08-26T02:26:55.514Z,22.25
2022-08-26T02:29:26.637Z,22.26
2022-08-26T02:31:55.786Z,22.27
2022-08-26T02:34:31.345Z,22.25
2022-08-26T02:36:59.467Z,22.23
2022-08-26T02:39:29.500Z,22.12
2022-08-26T02:41:57.766Z,22.03
2022-08-26T02:44:26.409Z,21.91
2022-08-26T02:46:54.755Z,21.87
2022-08-26T02:49:23.626Z,21.87
2022-08-26T02:51:51.766Z,21.87
2022-08-26T02:54:21.502Z,21.85
2022-08-26T02:56:51.361Z,21.81
2022-08-26T02:59:18.988Z,21.79
2022-08-26T03:01:49.641Z,21.78
2022-08-26T03:04:17.365Z,21.79
2022-08-26T03:06:47.107Z,21.73
2022-08-26T03:09:20.201Z,21.68
2022-08-26T03:11:47.429Z,21.66
2022-08-26T03:14:16.171Z,21.69
2022-08-26T03:16:43.374Z,21.69
2022-08-26T03:19:11.492Z,21.67
2022-08-26T03:21:39.262Z,21.65
2022-08-26T03:24:06.879Z,21.65
2022-08-26T03:26:34.072Z,21.62
2022-08-26T03:29:19.995Z,21.62
2022-08-26T03:31:48.654Z,21.58
2022-08-26T03:34:18.504Z,21.56
2022-08-26T03:36:45.849Z,21.55
2022-08-26T03:39:14.240Z,21.57
2022-08-26T03:41:41.701Z,21.55
2022-08-26T03:44:09.269Z,21.52
2022-08-26T03:46:36.951Z,21.50
2022-08-26T03:49:08.959Z,21.51
2022-08-26T03:51:38.912Z,21.46
2022-08-26T03:54:08.329Z,21.41
2022-08-26T03:56:36.736Z,21.43
2022-08-26T03:59:05.002Z,21.42
2022-08-26T04:01:35.927Z,21.45
2022-08-26T04:04:06.435Z,21.45
2022-08-26T04:06:36.454Z,21.45
2022-08-26T04:09:07.021Z,21.43
2022-08-26T04:11:38.532Z,21.46
2022-08-26T04:14:09.977Z,21.49
2022-08-26T04:16:37.503Z,21.51
2022-08-26T04:19:08.189Z,21.54
2022-08-26T04:21:35.877Z,21.55
2022-08-26T04:24:03.917Z,21.56
2022-08-26T04:26:37.111Z,21.56
2022-08-26T04:29:10.439Z,21.59
2022-08-26T04:31:38.473Z,21.61
2022-08-26T04:34:08.162Z,21.63
2022-08-26T04:36:38.724Z,21.66
2022-08-26T04:39:05.965Z,21.68
2022-08-26T04:41:33.680Z,21.71
2022-08-26T04:44:02.452Z,21.69
2022-08-26T04:46:30.187Z,21.70
2022-08-26T04:48:57.452Z,21.70
2022-08-26T04:51:29.619Z,21.67
2022-08-26T04:53:57.762Z,21.71
2022-08-26T04:56:25.974Z,21.76
2022-08-26T04:58:53.590Z,21.80
2022-08-26T05:01:21.147Z,21.84
2022-08-26T05:03:49.320Z,21.85
2022-08-26T05:06:19.058Z,21.84
2022-08-26T05:08:47.840Z,21.86
2022-08-26T05:11:15.434Z,21.92
2022-08-26T05:13:42.968Z,21.95
2022-08-26T05:16:12.463Z,21.98
2022-08-26T05:18:41.270Z,22.00
2022-08-26T05:21:17.745Z,22.06
2022-08-26T05:23:44.978Z,22.10
2022-08-26T05:26:14.007Z,22.16
2022-08-26T05:28:43.942Z,22.23
2022-08-26T05:31:13.572Z,22.28
2022-08-26T05:33:43.402Z,22.34
2022-08-26T05:36:12.951Z,22.40
2022-08-26T05:38:41.084Z,22.47
2022-08-26T05:41:18.613Z,22.58
2022-08-26T05:43:46.120Z,22.68
2022-08-26T05:46:13.600Z,22.77
2022-08-26T05:48:44.205Z,22.87
2022-08-26T05:51:12.378Z,22.97
2022-08-26T05:53:43.737Z,23.09
2022-08-26T05:56:12.403Z,23.23
2022-08-26T05:58:42.612Z,23.35
2022-08-26T06:01:15.957Z,23.48
2022-08-26T06:03:46.311Z,23.63
2022-08-26T06:06:20.771Z,23.78
2022-08-26T06:08:56.144Z,23.95
2022-08-26T06:11:25.525Z,24.14
2022-08-26T06:13:58.898Z,24.41
2022-08-26T06:16:29.242Z,24.66
2022-08-26T06:18:56.762Z,24.86
2022-08-26T06:21:26.708Z,25.13
2022-08-26T06:24:14.563Z,25.46
2022-08-26T06:26:43.345Z,25.84
2022-08-26T06:29:24.394Z,26.16
2022-08-26T06:31:52.424Z,26.34
2022-08-26T06:34:20.021Z,26.51
2022-08-26T06:36:47.876Z,26.49
2022-08-26T06:39:16.431Z,26.38
2022-08-26T06:41:44.982Z,26.36
2022-08-26T06:44:19.477Z,26.45
2022-08-26T06:46:50.511Z,26.65
2022-08-26T06:49:25.799Z,26.78
2022-08-26T06:51:55.401Z,26.88
2022-08-26T06:54:22.594Z,26.97
2022-08-26T06:56:49.810Z,27.11
2022-08-26T06:59:18.400Z,27.38
2022-08-26T07:01:45.884Z,27.76
2022-08-26T07:04:15.729Z,28.10
2022-08-26T07:06:48.897Z,28.49
2022-08-26T07:09:17.008Z,28.97
2022-08-26T07:11:45.174Z,29.38
2022-08-26T07:14:12.632Z,29.60
2022-08-26T07:16:41.345Z,29.62
2022-08-26T07:19:11.148Z,29.35
2022-08-26T07:21:41.575Z,29.30
2022-08-26T07:24:09.236Z,29.13
2022-08-26T07:26:42.871Z,29.02
2022-08-26T07:29:12.488Z,29.03
2022-08-26T07:31:43.020Z,29.10
2022-08-26T07:34:11.048Z,29.27
2022-08-26T07:36:38.410Z,29.73
2022-08-26T07:39:06.047Z,30.28
2022-08-26T07:41:33.867Z,30.76
2022-08-26T07:44:01.352Z,31.05
2022-08-26T07:46:30.430Z,31.30
2022-08-26T07:48:59.317Z,31.66
2022-08-26T07:51:28.069Z,31.84
2022-08-26T07:53:56.078Z,32.02
2022-08-26T07:56:23.577Z,32.21
2022-08-26T07:58:53.380Z,32.41
2022-08-26T08:01:21.166Z,32.44
2022-08-26T08:03:51.562Z,32.51
2022-08-26T08:06:22.127Z,32.47
2022-08-26T08:08:50.738Z,32.43
2022-08-26T08:11:20.526Z,32.41
2022-08-26T08:13:48.321Z,32.06
2022-08-26T08:16:16.393Z,31.84
2022-08-26T08:18:43.558Z,31.70
2022-08-26T08:21:21.657Z,31.83
2022-08-26T08:23:51.871Z,31.97
2022-08-26T08:26:19.597Z,32.02
2022-08-26T08:28:47.924Z,32.04
2022-08-26T08:31:38.619Z,31.83
2022-08-26T08:34:07.769Z,31.64
2022-08-26T08:36:36.140Z,31.64
2022-08-26T08:39:05.009Z,31.84
2022-08-26T08:41:48.381Z,32.02
2022-08-26T08:44:20.139Z,31.92
2022-08-26T08:46:51.879Z,31.76
2022-08-26T08:49:19.360Z,31.61
2022-08-26T08:51:52.356Z,31.35
2022-08-26T08:54:22.038Z,31.16
2022-08-26T08:56:55.406Z,31.07
2022-08-26T08:59:24.978Z,30.94
2022-08-26T09:02:00.914Z,30.79
2022-08-26T09:05:15.253Z,30.82
2022-08-26T09:07:48.153Z,30.96
2022-08-26T09:10:35.115Z,31.07
2022-08-26T09:13:05.258Z,31.07
2022-08-26T09:15:42.289Z,31.09
2022-08-26T09:18:22.709Z,31.11
2022-08-26T09:20:57.053Z,31.17
2022-08-26T09:23:25.342Z,31.27
2022-08-26T09:25:59.967Z,31.41
2022-08-26T09:28:29.756Z,31.50
2022-08-26T09:31:11.500Z,31.57
2022-08-26T09:33:40.311Z,31.61
2022-08-26T09:36:24.763Z,31.66
2022-08-26T09:38:53.569Z,31.78
2022-08-26T09:41:26.558Z,31.82
2022-08-26T09:44:14.541Z,31.87
2022-08-26T09:46:52.300Z,31.86
2022-08-26T09:49:32.687Z,31.86
2022-08-26T09:52:14.225Z,31.92
2022-08-26T09:54:42.293Z,32.14
2022-08-26T09:57:17.737Z,32.44
2022-08-26T09:59:45.120Z,32.46
2022-08-26T10:02:25.212Z,32.36
2022-08-26T10:04:56.719Z,32.20
2022-08-26T10:07:41.422Z,32.27
2022-08-26T10:10:13.038Z,32.63
2022-08-26T10:12:51.438Z,32.98
2022-08-26T10:15:20.185Z,33.24
2022-08-26T10:17:55.576Z,33.38
2022-08-26T10:20:25.881Z,33.35
2022-08-26T10:22:59.919Z,33.28
2022-08-26T10:25:31.789Z,33.38
2022-08-26T10:28:08.041Z,33.64
2022-08-26T10:30:40.729Z,33.84
2022-08-26T10:33:11.642Z,33.86
2022-08-26T10:35:47.530Z,33.84
2022-08-26T10:38:18.395Z,33.89
2022-08-26T10:40:55.169Z,33.79
2022-08-26T10:43:27.482Z,33.59
2022-08-26T10:45:59.674Z,33.46
2022-08-26T10:48:35.305Z,33.37
2022-08-26T10:51:04.250Z,33.29
2022-08-26T10:53:42.519Z,33.17
2022-08-26T10:56:19.292Z,33.12
2022-08-26T10:58:58.829Z,33.02
2022-08-26T11:01:47.162Z,32.84
2022-08-26T11:04:48.389Z,32.74
2022-08-26T11:07:42.187Z,32.56
2022-08-26T11:10:42.324Z,32.48
2022-08-26T11:13:10.488Z,32.36
2022-08-26T11:16:03.668Z,32.27
2022-08-26T11:18:46.004Z,32.26
2022-08-26T11:22:02.779Z,32.25
2022-08-26T11:24:59.896Z,32.16
2022-08-26T11:27:57.308Z,31.97
2022-08-26T11:30:45.203Z,31.78
2022-08-26T11:33:48.045Z,31.60
2022-08-26T11:36:55.721Z,31.43
2022-08-26T11:39:28.834Z,31.34
2022-08-26T11:42:00.043Z,31.30
2022-08-26T11:44:37.208Z,31.28
2022-08-26T11:47:11.439Z,31.23
2022-08-26T11:49:40.324Z,31.19
2022-08-26T11:52:11.529Z,31.24
2022-08-26T11:54:39.052Z,31.18
2022-08-26T11:57:12.456Z,31.12
2022-08-26T11:59:42.426Z,31.08
2022-08-26T12:02:16.305Z,31.11
2022-08-26T12:04:50.705Z,31.18
2022-08-26T12:07:24.462Z,31.21
2022-08-26T12:09:55.037Z,31.30
2022-08-26T12:12:27.124Z,31.39
2022-08-26T12:15:13.818Z,31.50
2022-08-26T12:17:42.146Z,31.60
2022-08-26T12:20:28.925Z,31.63
2022-08-26T12:22:58.861Z,31.54
2022-08-26T12:25:28.121Z,31.59
2022-08-26T12:28:05.554Z,31.68
2022-08-26T12:30:32.792Z,31.85
2022-08-26T12:33:19.929Z,31.94
2022-08-26T12:35:56.339Z,32.02
2022-08-26T12:38:25.001Z,32.11
2022-08-26T12:40:52.678Z,32.07
2022-08-26T12:43:41.476Z,32.11
2022-08-26T12:46:11.271Z,32.14
2022-08-26T12:48:42.621Z,32.06
2022-08-26T12:51:20.467Z,32.06
2022-08-26T12:53:47.784Z,32.14
2022-08-26T12:56:22.120Z,32.22
2022-08-26T12:59:00.697Z,32.27
2022-08-26T13:01:28.035Z,32.25
2022-08-26T13:03:55.898Z,32.15
2022-08-26T13:06:34.178Z,32.04
2022-08-26T13:09:06.377Z,31.99
2022-08-26T13:11:55.246Z,31.95
2022-08-26T13:14:24.831Z,32.12
2022-08-26T13:16:52.923Z,32.26
2022-08-26T13:19:22.676Z,32.39
2022-08-26T13:21:53.902Z,32.48
2022-08-26T13:24:25.750Z,32.57
2022-08-26T13:26:52.979Z,32.62
2022-08-26T13:29:20.617Z,32.56
2022-08-26T13:31:49.989Z,32.43
2022-08-26T13:34:20.114Z,32.44
2022-08-26T13:36:48.249Z,32.48
2022-08-26T13:39:15.764Z,32.55
2022-08-26T13:41:43.368Z,32.54
2022-08-26T13:44:11.016Z,32.49
2022-08-26T13:46:38.500Z,32.41
2022-08-26T13:49:07.437Z,32.34
2022-08-26T13:51:35.146Z,32.24
2022-08-26T13:54:02.313Z,32.14
2022-08-26T13:56:30.137Z,32.04
2022-08-26T13:58:57.962Z,31.95
2022-08-26T14:01:26.601Z,31.88
2022-08-26T14:03:53.832Z,31.81
2022-08-26T14:06:22.428Z,31.66
2022-08-26T14:08:49.681Z,31.63
2022-08-26T14:11:17.529Z,31.60
2022-08-26T14:13:44.739Z,31.52
2022-08-26T14:16:16.211Z,31.47
2022-08-26T14:18:47.302Z,31.41
2022-08-26T14:21:17.401Z,31.35
2022-08-26T14:23:46.088Z,31.32
2022-08-26T14:26:28.170Z,31.26
2022-08-26T14:28:57.081Z,31.21
2022-08-26T14:31:26.851Z,31.16
2022-08-26T14:33:56.672Z,31.09
2022-08-26T14:36:32.282Z,31.00
2022-08-26T14:39:03.862Z,30.91
2022-08-26T14:41:32.537Z,30.85
2022-08-26T14:44:02.953Z,30.84
2022-08-26T14:46:33.999Z,30.81
2022-08-26T14:49:05.218Z,30.75
2022-08-26T14:51:34.904Z,30.71
2022-08-26T14:54:12.339Z,30.66
2022-08-26T14:56:43.667Z,30.61
2022-08-26T14:59:11.125Z,30.52
2022-08-26T15:01:38.326Z,30.43
2022-08-26T15:04:05.554Z,30.29
2022-08-26T15:06:34.106Z,30.23
2022-08-26T15:09:01.705Z,30.09
2022-08-26T15:11:30.330Z,30.00
2022-08-26T15:13:57.601Z,29.94
2022-08-26T15:16:24.871Z,29.81
2022-08-26T15:18:52.343Z,29.74
2022-08-26T15:21:20.294Z,29.68
2022-08-26T15:23:48.241Z,29.57
2022-08-26T15:26:16.649Z,29.47
2022-08-26T15:28:45.420Z,29.40
2022-08-26T15:31:12.593Z,29.33
2022-08-26T15:33:40.409Z,29.24
2022-08-26T15:36:08.718Z,29.13
2022-08-26T15:38:38.345Z,29.06
2022-08-26T15:41:08.654Z,29.01
2022-08-26T15:43:36.022Z,29.01
2022-08-26T15:46:04.953Z,29.00
2022-08-26T15:48:32.207Z,28.97
2022-08-26T15:51:01.516Z,28.97
2022-08-26T15:53:31.849Z,28.94
2022-08-26T15:56:00.337Z,28.93
2022-08-26T15:58:28.657Z,28.94
2022-08-26T16:00:56.557Z,28.93
2022-08-26T16:03:25.159Z,28.94
2022-08-26T16:05:52.423Z,28.94
2022-08-26T16:08:20.208Z,28.94
2022-08-26T16:10:50.517Z,28.92
2022-08-26T16:13:19.963Z,28.89
2022-08-26T16:15:47.641Z,28.90
2022-08-26T16:18:15.813Z,28.89
2022-08-26T16:20:50.781Z,28.89
2022-08-26T16:23:30.742Z,28.86
2022-08-26T16:25:58.301Z,28.85
2022-08-26T16:28:26.345Z,28.81
2022-08-26T16:30:53.645Z,28.77
2022-08-26T16:33:21.595Z,28.73
2022-08-26T16:35:58.670Z,28.66
2022-08-26T16:38:25.770Z,28.60
2022-08-26T16:40:52.971Z,28.57
2022-08-26T16:43:20.151Z,28.55
2022-08-26T16:45:47.289Z,28.51
2022-08-26T16:48:14.460Z,28.47
2022-08-26T16:50:42.019Z,28.42
2022-08-26T16:55:45.052Z,28.30
2022-08-26T16:58:12.314Z,28.19
2022-08-26T17:00:39.511Z,28.12
2022-08-26T17:03:06.926Z,28.08
2022-08-26T17:05:34.261Z,28.05
2022-08-26T17:08:01.406Z,27.98
2022-08-26T17:10:30.256Z,27.92
2022-08-26T17:12:57.921Z,27.88
2022-08-26T17:15:25.566Z,27.78
2022-08-26T17:17:53.851Z,27.74
2022-08-26T17:20:22.422Z,27.64
2022-08-26T17:22:51.321Z,27.56
2022-08-26T17:25:20.652Z,27.53
2022-08-26T17:27:49.723Z,27.49
2022-08-26T17:30:17.785Z,27.42
2022-08-26T17:32:45.418Z,27.32
2022-08-26T17:35:14.458Z,27.23
2022-08-26T17:37:41.753Z,27.16
2022-08-26T17:40:12.672Z,27.08
2022-08-26T17:42:40.562Z,27.00
2022-08-26T17:45:11.171Z,26.90
2022-08-26T17:47:39.125Z,26.80
2022-08-26T17:50:09.258Z,26.72
2022-08-26T17:52:37.400Z,26.62
2022-08-26T17:55:05.886Z,26.50
2022-08-26T17:57:33.433Z,26.44
2022-08-26T18:00:13.680Z,26.44
2022-08-26T18:02:41.150Z,26.46
2022-08-26T18:05:11.778Z,26.38
2022-08-26T18:07:43.704Z,26.38
2022-08-26T18:10:15.435Z,26.45
2022-08-26T18:12:42.989Z,26.47
2022-08-26T18:15:15.505Z,26.46
2022-08-26T18:17:44.223Z,26.48
2022-08-26T18:20:15.214Z,26.51
2022-08-26T18:22:46.490Z,26.55
2022-08-26T18:25:14.959Z,26.54
2022-08-26T18:27:42.222Z,26.41
2022-08-26T18:30:16.591Z,26.26
2022-08-26T18:32:43.868Z,26.17
2022-08-26T18:35:11.795Z,26.07
2022-08-26T18:37:39.353Z,26.04
2022-08-26T18:40:08.291Z,26.01
2022-08-26T18:42:36.059Z,26.02
2022-08-26T18:45:03.884Z,25.99
2022-08-26T18:47:32.653Z,25.97
2022-08-26T18:50:01.666Z,25.96
2022-08-26T18:52:28.784Z,25.99
2022-08-26T18:54:56.130Z,26.00
2022-08-26T18:57:23.485Z,26.03
2022-08-26T18:59:50.664Z,26.05
2022-08-26T19:02:17.895Z,26.06
2022-08-26T19:04:46.647Z,26.08
2022-08-26T19:07:14.595Z,26.09
2022-08-26T19:09:41.780Z,26.04
2022-08-26T19:12:09.412Z,25.97
2022-08-26T19:14:36.746Z,25.91
2022-08-26T19:17:04.369Z,25.86
2022-08-26T19:19:31.806Z,25.83
2022-08-26T19:22:00.464Z,25.78
2022-08-26T19:24:28.465Z,25.71
2022-08-26T19:26:58.545Z,25.65
2022-08-26T19:29:28.228Z,25.61
2022-08-26T19:31:55.731Z,25.62
2022-08-26T19:34:24.142Z,25.65
2022-08-26T19:36:53.233Z,25.58
2022-08-26T19:39:21.852Z,25.58
2022-08-26T19:41:49.414Z,25.60
2022-08-26T19:44:37.977Z,25.58
2022-08-26T19:47:06.394Z,25.36
2022-08-26T19:49:34.834Z,25.15
2022-08-26T19:52:03.125Z,24.94
2022-08-26T19:54:31.704Z,24.76
2022-08-26T19:56:58.978Z,24.71
2022-08-26T19:59:26.289Z,24.69
2022-08-26T20:02:01.440Z,24.64
2022-08-26T20:04:29.281Z,24.64
2022-08-26T20:06:58.698Z,24.59
2022-08-26T20:09:27.905Z,24.54
2022-08-26T20:11:56.717Z,24.56
2022-08-26T20:14:24.222Z,24.60
2022-08-26T20:16:51.392Z,24.65
2022-08-26T20:19:37.774Z,24.70
2022-08-26T20:22:05.315Z,24.74
2022-08-26T20:24:32.863Z,24.73
2022-08-26T20:27:06.794Z,24.71
2022-08-26T20:29:34.876Z,24.69
2022-08-26T20:32:02.922Z,24.64
2022-08-26T20:34:30.201Z,24.67
2022-08-26T20:36:57.415Z,24.71
2022-08-26T20:39:24.544Z,24.70
2022-08-26T20:41:51.773Z,24.72
2022-08-26T20:44:20.270Z,24.75
2022-08-26T20:46:47.519Z,24.78
2022-08-26T20:49:15.437Z,24.79
2022-08-26T20:51:45.631Z,24.82
2022-08-26T20:54:13.177Z,24.82
2022-08-26T20:56:40.567Z,24.83
2022-08-26T20:59:08.413Z,24.84
2022-08-26T21:01:42.351Z,24.83
2022-08-26T21:04:12.032Z,24.85
2022-08-26T21:06:39.288Z,24.84
2022-08-26T21:09:11.395Z,24.80
2022-08-26T21:11:40.738Z,24.77
2022-08-26T21:14:16.990Z,24.75
2022-08-26T21:16:46.573Z,24.73
2022-08-26T21:19:17.617Z,24.73
2022-08-26T21:21:45.713Z,24.72
2022-08-26T21:24:13.420Z,24.68
2022-08-26T21:26:40.664Z,24.68
2022-08-26T21:29:09.900Z,24.66
2022-08-26T21:31:42.183Z,24.62
2022-08-26T21:34:13.865Z,24.61
2022-08-26T21:36:40.965Z,24.57
2022-08-26T21:39:11.775Z,24.55
2022-08-26T21:41:40.229Z,24.51
2022-08-26T21:44:07.773Z,24.49
2022-08-26T21:46:37.390Z,24.46
2022-08-26T21:49:07.472Z,24.45
2022-08-26T21:51:38.560Z,24.48
2022-08-26T21:54:10.749Z,24.45
2022-08-26T21:56:41.163Z,24.43
2022-08-26T21:59:09.221Z,24.42
2022-08-26T22:01:37.730Z,24.42
2022-08-26T22:04:07.011Z,24.37
2022-08-26T22:06:40.910Z,24.35
2022-08-26T22:09:08.017Z,24.33
2022-08-26T22:11:35.163Z,24.27
2022-08-26T22:14:02.426Z,24.22
2022-08-26T22:16:29.676Z,24.21
2022-08-26T22:18:56.833Z,24.21
2022-08-26T22:21:26.901Z,24.19
2022-08-26T22:23:57.962Z,24.17
2022-08-26T22:26:27.847Z,24.17
2022-08-26T22:28:59.074Z,24.11
2022-08-26T22:31:37.304Z,24.08
2022-08-26T22:34:07.691Z,24.06
2022-08-26T22:36:35.285Z,24.04
2022-08-26T22:39:04.301Z,24.01
2022-08-26T22:41:32.656Z,23.99
2022-08-26T22:44:01.435Z,23.98
2022-08-26T22:46:28.678Z,24.00
2022-08-26T22:48:55.862Z,23.99
2022-08-26T22:51:23.162Z,23.99
2022-08-26T22:53:50.274Z,23.96
2022-08-26T22:56:19.151Z,23.95
2022-08-26T22:58:46.242Z,23.91
2022-08-26T23:01:14.175Z,23.89
2022-08-26T23:03:41.463Z,23.86
2022-08-26T23:06:10.402Z,23.79
2022-08-26T23:08:38.556Z,23.74
2022-08-26T23:11:08.385Z,23.71
2022-08-26T23:13:37.221Z,23.70
2022-08-26T23:16:06.693Z,23.70
2022-08-26T23:18:33.901Z,23.68
2022-08-26T23:21:01.042Z,23.67
2022-08-26T23:23:28.183Z,23.64
2022-08-26T23:25:55.880Z,23.60
2022-08-26T23:28:23.514Z,23.57
2022-08-26T23:30:53.668Z,23.56
2022-08-26T23:33:20.980Z,23.54
2022-08-26T23:35:48.188Z,23.52
2022-08-26T23:38:16.491Z,23.52
2022-08-26T23:40:43.623Z,23.51
2022-08-26T23:43:16.389Z,23.49
2022-08-26T23:45:43.819Z,23.46
2022-08-26T23:48:12.465Z,23.44
2022-08-26T23:50:58.214Z,23.41
2022-08-26T23:53:25.368Z,23.39
2022-08-26T23:55:53.156Z,23.37
2022-08-26T23:58:21.175Z,23.35
